New Braunfels, TX (78132)

01:06 PM CDT die 01o September, anno 2015 (GMT -0500)
Oakwood Estates | | Change Station
CLOSE
Current Station
Personal Weather Stations
Location: New Braunfels, TX
Elevation: 758 ft
Nearby Weather Stations

Elev 758 ft 29.72 °N, 98.14 °W | Updated 12 seconds ago

Partialiter Nubila
Partialiter Nubila
88.7 °F
Feels Like 97 °F
N
0.0
Ventus Variabilis Ventus from Magis Eurus quam Auster
Gusts 2.0 mph

Hodie
High -- | Low -- °F
--% Chance of Precip.
Yesterday
High -- | Low -- °F
Precip. -- in
7:09 AM 7:54 PM
Waning Gibbous, 87% visible
Pressio 29.98 in
Visibilitas 10.0 milia passuum
Clouds Nubes Dispersae 3500 ft
Plerumque Nubila 4400 ft
Plerumque Nubila 8000 ft
Index Caloris 97 °F
Frigus in quo Ros apparet 74 °F
Umor 61%
Rainfall 0.00 in
Snow Depth Not available.
UV 6 out of 12
Pollen 8.50 out of 12
Air Quality Not available.
Flu Activity Not available.
METAR KBAZ 011751Z 19006KT 10SM SCT035 BKN044 BKN080 31/21 A3001 RMK AO2 SLP152 T03110206 10322 20233 58012
Pressio 29.98 in
Visibilitas 10.0 milia passuum
Clouds Nubes Dispersae 3500 ft
Plerumque Nubila 4400 ft
Plerumque Nubila 8000 ft
Index Caloris 97 °F
Frigus in quo Ros apparet 74 °F
Umor 61%
Rainfall 0.00 in
Snow Depth Not available.
UV 6 out of 12
Pollen 8.50 out of 12
Air Quality Not available.
Flu Activity Not available.
METAR KBAZ 011751Z 19006KT 10SM SCT035 BKN044 BKN080 31/21 A3001 RMK AO2 SLP152 T03110206 10322 20233 58012
Nowcast | as of 11:27 am CDT on September 1, 2015

Light to moderate to isolated heavy showers and thunderstorms will continue to affect parts of the eastern half of south central Texas for the next several hours. The heaviest activity according to latest radar trends is over central Fayette County. These showers and storms will move to the north and affect parts of Bastrop and Lee counties for the next hour or so. Rainfall amounts will generally be around few hundredths to one half inch with very isolated spots getting from 1 to 2 inches in couple of hours.

×

10-Day Weather Forecast

×

Almanac

Astronomy

Sep. 01, 2015 Rise Set
Actual Time
Civil Twilight
Nautical Twilight
Astronomical Twilight
Moon
Length Of Visible Light
Length of Day
Tomorrow will be .
, % of the Moon is Illuminated

Today's Extremes

State Highs State Lows

Community

WunderPhotos

Upload Photos

1,851,588 photos uploaded!

WunderBlogs® & News

Nearby

Air Quality

  Air Quality AQ Index Pollutant
Not available.

Snow Depth

Station Depth Elevation

Earthquake Activity

City Distance Mag. Time & Date
Minimum magnitude displayed is 2.5.

Coastal Water Temperatures

Locus Calor

Stations

Nearby Weather Stations

Station Location Temp Frigus Venti Frigus in quo Ros apparet Umor Ventus Precip. Elev Renovata Type